createdAt,value
2019-05-28T00:00:34.641Z,4.50
2019-05-28T00:03:05.434Z,5.12
2019-05-28T00:05:35.577Z,5.05
2019-05-28T00:08:05.751Z,4.20
2019-05-28T00:10:37.273Z,3.85
2019-05-28T00:13:07.603Z,4.00
2019-05-28T00:15:38.891Z,3.77
2019-05-28T00:18:10.479Z,3.98
2019-05-28T00:20:41.444Z,4.00
2019-05-28T00:23:11.931Z,3.72
2019-05-28T00:25:42.095Z,4.53
2019-05-28T00:28:12.550Z,3.90
2019-05-28T00:30:42.951Z,4.45
2019-05-28T00:33:13.274Z,3.77
2019-05-28T00:35:43.595Z,4.00
2019-05-28T00:38:13.937Z,4.10
2019-05-28T00:40:44.567Z,4.95
2019-05-28T00:43:15.973Z,4.92
2019-05-28T00:45:46.328Z,4.10
2019-05-28T00:48:17.932Z,4.67
2019-05-28T00:50:48.159Z,4.70
2019-05-28T00:53:18.461Z,4.85
2019-05-28T00:55:50.236Z,4.50
2019-05-28T00:58:21.777Z,4.28
2019-05-28T01:00:52.724Z,5.08
2019-05-28T01:03:26.997Z,4.40
2019-05-28T01:06:06.130Z,5.12
2019-05-28T01:08:38.654Z,5.40
2019-05-28T01:11:09.165Z,5.58
2019-05-28T01:13:39.539Z,5.42
2019-05-28T01:16:09.962Z,4.60
2019-05-28T01:18:40.360Z,4.50
2019-05-28T01:21:10.549Z,4.97
2019-05-28T01:23:40.693Z,4.40
2019-05-28T01:26:10.965Z,4.67
2019-05-28T01:28:41.070Z,5.30
2019-05-28T01:31:11.777Z,5.47
2019-05-28T01:33:43.258Z,5.00
2019-05-28T01:36:13.515Z,4.80
2019-05-28T01:38:44.498Z,4.75
2019-05-28T01:41:15.318Z,4.62
2019-05-28T01:43:45.940Z,4.22
2019-05-28T01:46:16.041Z,3.80
2019-05-28T01:48:46.488Z,4.10
2019-05-28T01:51:16.620Z,4.60
2019-05-28T01:53:47.513Z,4.58
2019-05-28T01:56:17.682Z,3.87
2019-05-28T01:58:48.627Z,4.10
2019-05-28T02:01:19.156Z,4.30
2019-05-28T02:03:49.858Z,3.52
2019-05-28T02:06:20.302Z,3.37
2019-05-28T02:08:51.116Z,4.55
2019-05-28T02:11:21.336Z,4.17
2019-05-28T02:13:51.971Z,3.67
2019-05-28T02:16:22.583Z,3.22
2019-05-28T02:18:53.183Z,3.72
2019-05-28T02:21:24.102Z,3.37
2019-05-28T02:23:54.239Z,3.62
2019-05-28T02:26:24.962Z,3.92
2019-05-28T02:28:55.762Z,3.87
2019-05-28T02:31:28.080Z,3.67
2019-05-28T02:33:58.044Z,3.55
2019-05-28T02:36:28.265Z,3.05
2019-05-28T02:38:58.491Z,4.25
2019-05-28T02:41:29.326Z,3.80
2019-05-28T02:43:59.465Z,3.77
2019-05-28T02:46:30.184Z,3.90
2019-05-28T02:49:01.000Z,3.50
2019-05-28T02:51:31.400Z,4.65
2019-05-28T02:54:02.089Z,5.08
2019-05-28T02:56:33.240Z,5.17
2019-05-28T02:59:03.808Z,5.55
2019-05-28T03:01:44.417Z,5.80
2019-05-28T03:04:07.729Z,6.10
2019-05-28T03:06:43.171Z,5.03
2019-05-28T03:09:14.187Z,4.53
2019-05-28T03:11:44.682Z,5.33
2019-05-28T03:14:15.740Z,6.20
2019-05-28T03:16:48.909Z,5.67
2019-05-28T03:19:19.854Z,6.92
2019-05-28T03:21:50.955Z,7.12
2019-05-28T03:24:22.040Z,6.90
2019-05-28T03:26:52.333Z,6.65
2019-05-28T03:29:22.859Z,6.30
2019-05-28T03:32:07.294Z,5.25
2019-05-28T03:34:24.967Z,7.12
2019-05-28T03:36:56.741Z,6.45
2019-05-28T03:39:28.562Z,7.33
2019-05-28T03:41:58.777Z,7.35
2019-05-28T03:44:29.316Z,6.62
2019-05-28T03:46:59.864Z,6.33
2019-05-28T03:49:30.154Z,5.15
2019-05-28T03:52:00.665Z,6.37
2019-05-28T03:54:30.752Z,6.20
2019-05-28T03:57:01.798Z,5.65
2019-05-28T03:59:32.265Z,6.92
2019-05-28T04:02:02.880Z,7.35
2019-05-28T04:04:37.464Z,6.62
2019-05-28T04:07:07.795Z,7.15
2019-05-28T04:09:38.070Z,8.15
2019-05-28T04:12:09.087Z,6.35
2019-05-28T04:14:39.407Z,5.83
2019-05-28T04:17:09.647Z,6.92
2019-05-28T04:19:39.899Z,7.42
2019-05-28T04:22:09.996Z,6.92
2019-05-28T04:24:40.937Z,6.55
2019-05-28T04:27:11.578Z,6.35
2019-05-28T04:29:42.732Z,7.08
2019-05-28T04:32:12.892Z,7.10
2019-05-28T04:34:43.138Z,7.08
2019-05-28T04:37:13.399Z,7.78
2019-05-28T04:39:43.999Z,6.55
2019-05-28T04:42:14.883Z,6.75
2019-05-28T04:44:46.032Z,6.92
2019-05-28T04:47:16.273Z,7.17
2019-05-28T04:49:47.159Z,7.85
2019-05-28T04:52:18.864Z,7.33
2019-05-28T04:54:50.458Z,8.03
2019-05-28T04:57:21.531Z,6.95
2019-05-28T04:59:52.125Z,7.10
2019-05-28T05:02:22.835Z,6.30
2019-05-28T05:04:54.522Z,6.78
2019-05-28T05:07:26.256Z,6.12
2019-05-28T05:09:56.971Z,5.33
2019-05-28T05:12:27.142Z,5.17
2019-05-28T05:14:57.686Z,4.60
2019-05-28T05:17:30.388Z,5.72
2019-05-28T05:20:00.702Z,6.75
2019-05-28T05:22:31.162Z,4.90
2019-05-28T05:25:01.410Z,7.08
2019-05-28T05:27:33.447Z,7.37
2019-05-28T05:30:03.660Z,7.30
2019-05-28T05:32:34.306Z,7.22
2019-05-28T05:35:04.914Z,7.03
2019-05-28T05:37:35.684Z,8.10
2019-05-28T05:40:06.537Z,7.22
2019-05-28T05:42:37.337Z,7.47
2019-05-28T05:45:08.321Z,7.60
2019-05-28T05:47:38.649Z,7.25
2019-05-28T05:50:09.147Z,6.75
2019-05-28T05:52:39.427Z,6.62
2019-05-28T05:55:11.128Z,7.17
2019-05-28T05:57:41.864Z,8.00
2019-05-28T06:00:12.930Z,6.45
2019-05-28T06:02:43.298Z,7.20
2019-05-28T06:05:13.947Z,7.33
2019-05-28T06:07:44.800Z,8.28
2019-05-28T06:10:15.364Z,8.55
2019-05-28T06:12:46.143Z,8.80
2019-05-28T06:15:17.397Z,7.35
2019-05-28T06:17:48.150Z,9.20
2019-05-28T06:20:18.903Z,8.68
2019-05-28T06:22:49.579Z,9.15
2019-05-28T06:25:20.428Z,11.30
2019-05-28T06:27:51.104Z,8.33
2019-05-28T06:30:21.531Z,8.70
2019-05-28T06:32:52.433Z,9.88
2019-05-28T06:35:22.683Z,10.20
2019-05-28T06:37:53.465Z,8.10
2019-05-28T06:40:24.595Z,8.43
2019-05-28T06:42:55.319Z,8.15
2019-05-28T06:45:25.953Z,8.85
2019-05-28T06:47:56.546Z,8.83
2019-05-28T06:50:26.778Z,8.03
2019-05-28T06:52:57.185Z,9.30
2019-05-28T06:55:27.335Z,9.60
2019-05-28T06:57:57.484Z,10.75
2019-05-28T07:00:28.425Z,9.30
2019-05-28T07:02:59.196Z,9.03
2019-05-28T07:05:29.389Z,8.98
2019-05-28T07:08:00.020Z,8.78
2019-05-28T07:10:33.300Z,8.23
2019-05-28T07:13:04.605Z,8.20
2019-05-28T07:15:34.976Z,9.78
2019-05-28T07:18:05.100Z,10.20
2019-05-28T07:20:36.052Z,10.55
2019-05-28T07:23:06.320Z,9.05
2019-05-28T07:25:37.994Z,7.58
2019-05-28T07:28:11.616Z,9.05
2019-05-28T07:30:40.812Z,9.73
2019-05-28T07:33:18.501Z,10.00
2019-05-28T07:35:49.833Z,9.20
2019-05-28T07:38:20.498Z,10.75
2019-05-28T07:40:51.240Z,9.80
2019-05-28T07:43:21.962Z,9.15
2019-05-28T07:45:52.504Z,9.20
2019-05-28T07:48:23.335Z,9.83
2019-05-28T07:50:54.044Z,10.63
2019-05-28T07:53:38.719Z,10.35
2019-05-28T07:55:57.122Z,8.70
2019-05-28T07:58:27.882Z,8.20
2019-05-28T08:00:58.179Z,7.62
2019-05-28T08:03:29.580Z,7.92
2019-05-28T08:06:00.176Z,8.20
2019-05-28T08:08:30.508Z,7.42
2019-05-28T08:11:01.106Z,8.70
2019-05-28T08:13:40.664Z,10.18
2019-05-28T08:16:17.547Z,8.15
2019-05-28T08:18:37.714Z,8.55
2019-05-28T08:21:13.436Z,11.30
2019-05-28T08:23:49.440Z,10.60
2019-05-28T08:26:26.000Z,11.57
2019-05-28T08:28:59.560Z,12.35
2019-05-28T08:31:33.090Z,10.30
2019-05-28T08:34:03.263Z,10.13
2019-05-28T08:36:33.387Z,10.15
2019-05-28T08:39:04.388Z,9.03
2019-05-28T08:41:37.320Z,9.08
2019-05-28T08:44:11.891Z,8.28
2019-05-28T08:46:43.756Z,8.78
2019-05-28T08:49:17.302Z,8.03
2019-05-28T08:51:48.066Z,8.95
2019-05-28T08:54:21.594Z,10.43
2019-05-28T08:56:51.923Z,8.83
2019-05-28T08:59:22.088Z,9.15
2019-05-28T09:01:53.977Z,7.85
2019-05-28T09:04:24.332Z,10.23
2019-05-28T09:06:54.549Z,11.30
2019-05-28T09:09:25.241Z,11.60
2019-05-28T09:11:55.664Z,11.57
2019-05-28T09:14:26.206Z,9.55
2019-05-28T09:16:56.537Z,8.95
2019-05-28T09:19:27.163Z,8.65
2019-05-28T09:21:57.489Z,8.35
2019-05-28T09:24:28.056Z,7.12
2019-05-28T09:26:58.364Z,6.12
2019-05-28T09:29:28.755Z,5.60
2019-05-28T09:31:59.028Z,5.60
2019-05-28T09:34:33.491Z,6.83
2019-05-28T09:37:04.071Z,5.65
2019-05-28T09:39:34.496Z,6.28
2019-05-28T09:42:04.759Z,8.18
2019-05-28T09:44:35.524Z,8.60
2019-05-28T09:47:06.635Z,10.05
2019-05-28T09:49:36.954Z,9.40
2019-05-28T09:52:07.655Z,9.33
2019-05-28T09:54:38.440Z,9.25
2019-05-28T09:57:08.592Z,6.97
2019-05-28T09:59:41.843Z,6.12
2019-05-28T10:02:11.170Z,5.50
2019-05-28T10:04:49.634Z,4.53
2019-05-28T10:07:15.884Z,4.80
2019-05-28T10:09:46.265Z,5.05
2019-05-28T10:12:16.605Z,4.05
2019-05-28T10:14:47.716Z,5.55
2019-05-28T10:17:18.520Z,5.15
2019-05-28T10:19:48.709Z,6.67
2019-05-28T10:22:20.205Z,3.62
2019-05-28T10:24:50.732Z,4.83
2019-05-28T10:27:21.522Z,3.85
2019-05-28T10:29:52.119Z,3.20
2019-05-28T10:32:23.141Z,3.75
2019-05-28T10:35:03.589Z,3.90
2019-05-28T10:37:26.787Z,3.45
2019-05-28T10:39:57.417Z,3.95
2019-05-28T10:42:27.677Z,3.27
2019-05-28T10:44:57.952Z,3.22
2019-05-28T10:47:28.373Z,3.33
2019-05-28T10:49:59.115Z,3.33
2019-05-28T10:52:29.426Z,3.37
2019-05-28T10:55:02.642Z,4.08
2019-05-28T10:57:31.920Z,3.83
2019-05-28T11:00:03.072Z,3.77
2019-05-28T11:02:33.824Z,3.15
2019-05-28T11:05:04.802Z,4.50
2019-05-28T11:07:35.468Z,3.62
2019-05-28T11:10:22.437Z,3.20
2019-05-28T11:12:39.407Z,3.20
2019-05-28T11:15:10.810Z,2.83
2019-05-28T11:17:41.194Z,3.47
2019-05-28T11:20:12.902Z,2.90
2019-05-28T11:22:43.744Z,3.20
2019-05-28T11:25:15.231Z,2.42
2019-05-28T11:27:45.490Z,3.50
2019-05-28T11:30:17.790Z,2.80
2019-05-28T11:32:48.001Z,3.47
2019-05-28T11:35:19.180Z,2.70
2019-05-28T11:37:50.091Z,3.98
2019-05-28T11:40:22.764Z,3.30
2019-05-28T11:42:53.426Z,3.40
2019-05-28T11:45:23.836Z,6.40
2019-05-28T11:47:54.143Z,10.48
2019-05-28T11:50:25.257Z,16.25
2019-05-28T11:52:55.769Z,19.57
2019-05-28T11:55:27.347Z,19.55
2019-05-28T11:57:57.907Z,19.25
2019-05-28T12:00:30.072Z,19.30
2019-05-28T12:03:00.261Z,18.42
2019-05-28T12:05:30.517Z,22.55
2019-05-28T12:08:00.788Z,23.52
2019-05-28T12:10:31.232Z,23.85
2019-05-28T12:13:01.868Z,23.52
2019-05-28T12:15:33.659Z,24.15
2019-05-28T12:18:04.375Z,20.25
2019-05-28T12:20:34.970Z,20.90
2019-05-28T12:23:11.139Z,19.55
2019-05-28T12:25:37.265Z,13.93
2019-05-28T12:28:07.502Z,11.88
2019-05-28T12:30:37.998Z,9.20
2019-05-28T12:33:08.446Z,7.10
2019-05-28T12:35:42.942Z,6.00
2019-05-28T12:38:12.268Z,5.92
2019-05-28T12:40:47.857Z,6.00
2019-05-28T12:43:14.794Z,5.03
2019-05-28T12:45:45.505Z,5.58
2019-05-28T12:48:15.888Z,4.47
2019-05-28T12:50:46.464Z,4.85
2019-05-28T12:53:17.630Z,4.55
2019-05-28T12:55:48.118Z,4.62
2019-05-28T12:58:18.842Z,4.00
2019-05-28T13:00:49.361Z,4.45
2019-05-28T13:03:19.609Z,3.90
2019-05-28T13:05:49.804Z,4.25
2019-05-28T13:08:21.382Z,3.27
2019-05-28T13:10:52.752Z,3.20
2019-05-28T13:13:23.652Z,2.98
2019-05-28T13:15:54.142Z,2.72
2019-05-28T13:18:24.354Z,2.50
2019-05-28T13:20:54.841Z,2.98
2019-05-28T13:23:25.653Z,2.67
2019-05-28T13:25:55.798Z,3.08
2019-05-28T13:28:25.950Z,3.10
2019-05-28T13:30:56.557Z,3.45
2019-05-28T13:33:26.989Z,3.20
2019-05-28T13:35:57.128Z,3.22
2019-05-28T13:38:27.959Z,2.70
2019-05-28T13:40:58.761Z,3.08
2019-05-28T13:43:29.270Z,3.30
2019-05-28T13:46:00.225Z,2.60
2019-05-28T13:48:30.846Z,2.42
2019-05-28T13:51:01.139Z,2.08
2019-05-28T13:53:34.183Z,2.37
2019-05-28T13:56:04.715Z,3.02
2019-05-28T13:58:35.399Z,2.55
2019-05-28T14:01:05.910Z,1.82
2019-05-28T14:03:37.420Z,2.08
2019-05-28T14:06:07.728Z,2.17
2019-05-28T14:08:46.555Z,2.45
2019-05-28T14:11:10.280Z,2.60
2019-05-28T14:13:40.797Z,3.27
2019-05-28T14:16:11.173Z,2.90
2019-05-28T14:18:41.499Z,2.80
2019-05-28T14:21:11.989Z,2.67
2019-05-28T14:23:42.311Z,3.00
2019-05-28T14:26:12.710Z,2.70
2019-05-28T14:28:42.899Z,3.37
2019-05-28T14:31:13.925Z,2.98
2019-05-28T14:33:44.661Z,2.25
2019-05-28T14:36:15.801Z,2.90
2019-05-28T14:39:01.253Z,2.22
2019-05-28T14:41:17.840Z,2.20
2019-05-28T14:43:48.311Z,2.50
2019-05-28T14:46:18.988Z,2.27
2019-05-28T14:48:49.677Z,2.35
2019-05-28T14:51:21.003Z,2.47
2019-05-28T14:53:51.996Z,2.10
2019-05-28T14:56:22.593Z,1.90
2019-05-28T14:58:53.225Z,1.95
2019-05-28T15:01:23.653Z,2.02
2019-05-28T15:03:55.395Z,1.22
2019-05-28T15:06:26.087Z,1.90
2019-05-28T15:08:56.402Z,1.80
2019-05-28T15:11:27.576Z,1.60
2019-05-28T15:13:58.109Z,2.10
2019-05-28T15:16:28.966Z,2.50
2019-05-28T15:18:59.733Z,1.47
2019-05-28T15:21:30.075Z,1.62
2019-05-28T15:24:05.398Z,1.75
2019-05-28T15:26:35.471Z,1.90
2019-05-28T15:29:07.743Z,1.55
2019-05-28T15:31:38.136Z,1.70
2019-05-28T15:34:08.771Z,1.72
2019-05-28T15:36:39.399Z,2.10
2019-05-28T15:39:09.547Z,2.10
2019-05-28T15:41:43.511Z,1.92
2019-05-28T15:44:16.762Z,1.80
2019-05-28T15:46:47.166Z,1.35
2019-05-28T15:49:17.654Z,1.27
2019-05-28T15:52:06.987Z,1.85
2019-05-28T15:54:25.622Z,1.90
2019-05-28T15:56:56.771Z,2.92
2019-05-28T15:59:27.409Z,2.30
2019-05-28T16:01:57.845Z,2.02
2019-05-28T16:04:28.956Z,2.60
2019-05-28T16:07:05.318Z,2.40
2019-05-28T16:09:35.474Z,1.67
2019-05-28T16:12:07.222Z,2.45
2019-05-28T16:14:37.444Z,2.55
2019-05-28T16:17:08.245Z,1.82
2019-05-28T16:19:38.813Z,2.55
2019-05-28T16:22:09.391Z,2.50
2019-05-28T16:24:39.507Z,2.27
2019-05-28T16:27:09.878Z,2.30
2019-05-28T16:29:40.350Z,2.02
2019-05-28T16:32:10.673Z,2.22
2019-05-28T16:34:41.375Z,2.33
2019-05-28T16:37:12.010Z,2.35
2019-05-28T16:39:42.560Z,1.90
2019-05-28T16:42:13.864Z,2.55
2019-05-28T16:44:44.554Z,2.70
2019-05-28T16:47:18.314Z,3.05
2019-05-28T16:49:47.419Z,2.40
2019-05-28T16:52:18.920Z,2.50
2019-05-28T16:54:49.745Z,2.87
2019-05-28T16:57:20.374Z,2.87
2019-05-28T16:59:51.010Z,3.30
2019-05-28T17:02:21.284Z,2.65
2019-05-28T17:04:51.687Z,2.83
2019-05-28T17:07:22.476Z,2.67
2019-05-28T17:09:55.804Z,3.00
2019-05-28T17:12:26.224Z,2.72
2019-05-28T17:15:01.886Z,2.65
2019-05-28T17:17:34.453Z,2.20
2019-05-28T17:20:06.299Z,3.10
2019-05-28T17:22:38.059Z,2.12
2019-05-28T17:25:11.939Z,2.50
2019-05-28T17:27:41.124Z,2.47
2019-05-28T17:30:19.150Z,2.37
2019-05-28T17:32:44.912Z,2.33
2019-05-28T17:35:15.866Z,1.77
2019-05-28T17:37:47.516Z,1.17
2019-05-28T17:40:21.946Z,0.90
2019-05-28T17:42:50.281Z,1.20
2019-05-28T17:45:21.121Z,1.20
2019-05-28T17:47:51.584Z,1.20
2019-05-28T17:50:22.238Z,1.40
2019-05-28T17:52:52.698Z,1.00
2019-05-28T17:55:24.577Z,1.02
2019-05-28T17:57:56.556Z,0.70
2019-05-28T18:00:26.820Z,1.00
2019-05-28T18:02:57.241Z,1.00
2019-05-28T18:05:28.084Z,0.85
2019-05-28T18:08:05.296Z,0.60
2019-05-28T18:10:35.804Z,0.80
2019-05-28T18:13:06.464Z,0.65
2019-05-28T18:15:36.757Z,0.80
2019-05-28T18:18:07.498Z,0.55
2019-05-28T18:20:38.042Z,0.60
2019-05-28T18:23:08.290Z,0.70
2019-05-28T18:25:39.415Z,0.82
2019-05-28T18:28:11.553Z,0.60
2019-05-28T18:30:42.810Z,0.80
2019-05-28T18:33:13.188Z,0.55
2019-05-28T18:35:43.823Z,0.50
2019-05-28T18:38:17.543Z,0.78
2019-05-28T18:40:49.492Z,0.93
2019-05-28T18:43:20.048Z,0.53
2019-05-28T18:45:50.454Z,1.00
2019-05-28T18:48:21.903Z,0.53
2019-05-28T18:50:53.716Z,0.80
2019-05-28T18:53:26.530Z,0.60
2019-05-28T18:55:58.403Z,0.90
2019-05-28T18:58:34.769Z,0.72
2019-05-28T19:01:11.795Z,0.82
2019-05-28T19:03:50.965Z,0.60
2019-05-28T19:06:26.779Z,1.00
2019-05-28T19:08:59.405Z,0.90
2019-05-28T19:11:37.838Z,0.80
2019-05-28T19:14:03.543Z,1.00
2019-05-28T19:16:34.989Z,0.90
2019-05-28T19:19:05.631Z,1.10
2019-05-28T19:21:36.302Z,1.02
2019-05-28T19:24:07.393Z,1.20
2019-05-28T19:26:38.299Z,1.05
2019-05-28T19:29:09.491Z,0.90
2019-05-28T19:31:39.909Z,1.20
2019-05-28T19:34:13.792Z,1.22
2019-05-28T19:36:44.613Z,0.90
2019-05-28T19:39:16.258Z,1.10
2019-05-28T19:41:54.159Z,1.05
2019-05-28T19:44:19.477Z,1.00
2019-05-28T19:46:49.963Z,1.17
2019-05-28T19:49:20.830Z,0.82
2019-05-28T19:51:52.854Z,0.80
2019-05-28T19:54:27.017Z,0.80
2019-05-28T19:56:57.662Z,0.80
2019-05-28T19:59:28.587Z,1.00
2019-05-28T20:01:58.852Z,0.80
2019-05-28T20:04:29.382Z,1.10
2019-05-28T20:07:00.243Z,0.93
2019-05-28T20:09:30.971Z,0.75
2019-05-28T20:12:12.274Z,1.00
2019-05-28T20:14:34.218Z,1.42
2019-05-28T20:17:05.274Z,1.00
2019-05-28T20:19:36.565Z,0.90
2019-05-28T20:22:07.698Z,1.02
2019-05-28T20:24:38.296Z,0.82
2019-05-28T20:27:11.502Z,0.90
2019-05-28T20:29:42.631Z,0.75
2019-05-28T20:32:13.480Z,1.00
2019-05-28T20:34:44.463Z,0.93
2019-05-28T20:37:15.563Z,0.70
2019-05-28T20:39:46.055Z,1.05
2019-05-28T20:42:26.950Z,0.98
2019-05-28T20:44:49.692Z,0.90
2019-05-28T20:47:20.526Z,0.85
2019-05-28T20:49:50.703Z,0.88
2019-05-28T20:52:21.592Z,0.82
2019-05-28T20:54:52.944Z,0.80
2019-05-28T20:57:23.895Z,0.80
2019-05-28T20:59:54.334Z,0.80
2019-05-28T21:02:25.388Z,1.00
2019-05-28T21:04:56.743Z,0.82
2019-05-28T21:07:27.309Z,0.80
2019-05-28T21:09:58.524Z,0.80
2019-05-28T21:12:42.807Z,0.82
2019-05-28T21:15:01.555Z,0.93
2019-05-28T21:17:32.404Z,0.80
2019-05-28T21:20:07.915Z,0.98
2019-05-28T21:22:38.378Z,0.72
2019-05-28T21:25:09.703Z,1.00
2019-05-28T21:27:40.109Z,1.10
2019-05-28T21:30:11.228Z,0.90
2019-05-28T21:32:42.157Z,0.88
2019-05-28T21:35:12.420Z,1.00
2019-05-28T21:37:43.061Z,1.10
2019-05-28T21:40:14.058Z,1.00
2019-05-28T21:42:58.525Z,1.10
2019-05-28T21:45:17.662Z,1.10
2019-05-28T21:47:47.895Z,1.10
2019-05-28T21:50:18.385Z,1.10
2019-05-28T21:52:49.506Z,1.30
2019-05-28T21:55:20.098Z,1.50
2019-05-28T21:57:50.480Z,1.32
2019-05-28T22:00:31.869Z,1.55
2019-05-28T22:03:04.964Z,1.22
2019-05-28T22:05:35.489Z,1.40
2019-05-28T22:08:06.147Z,1.35
2019-05-28T22:10:37.660Z,1.70
2019-05-28T22:13:20.487Z,1.30
2019-05-28T22:15:40.539Z,1.40
2019-05-28T22:18:11.303Z,1.40
2019-05-28T22:20:42.418Z,1.25
2019-05-28T22:23:12.917Z,1.30
2019-05-28T22:25:43.740Z,1.45
2019-05-28T22:28:14.105Z,1.37
2019-05-28T22:30:44.497Z,1.10
2019-05-28T22:33:15.273Z,1.00
2019-05-28T22:35:46.120Z,1.25
2019-05-28T22:38:16.855Z,1.55
2019-05-28T22:40:47.473Z,1.50
2019-05-28T22:43:30.748Z,1.52
2019-05-28T22:45:50.890Z,1.60
2019-05-28T22:48:21.213Z,1.70
2019-05-28T22:50:52.331Z,1.52
2019-05-28T22:53:22.713Z,1.40
2019-05-28T22:55:53.233Z,1.72
2019-05-28T22:58:23.940Z,2.05
2019-05-28T23:00:54.601Z,1.80
2019-05-28T23:03:24.832Z,1.80
2019-05-28T23:05:55.139Z,2.00
2019-05-28T23:08:25.727Z,2.40
2019-05-28T23:10:56.940Z,1.62
2019-05-28T23:13:28.718Z,2.35
2019-05-28T23:15:59.898Z,2.20
2019-05-28T23:18:31.529Z,2.20
2019-05-28T23:21:02.626Z,2.42
2019-05-28T23:23:33.040Z,2.80
2019-05-28T23:26:03.315Z,2.70
2019-05-28T23:28:33.536Z,2.47
2019-05-28T23:31:03.886Z,2.70
2019-05-28T23:33:34.271Z,2.30
2019-05-28T23:36:04.510Z,3.00
2019-05-28T23:38:35.186Z,2.92
2019-05-28T23:41:05.653Z,2.95
2019-05-28T23:43:36.593Z,3.12
2019-05-28T23:46:07.826Z,2.90
2019-05-28T23:48:38.876Z,3.10
2019-05-28T23:51:10.463Z,2.62
2019-05-28T23:53:41.011Z,3.27
2019-05-28T23:56:11.741Z,3.30
2019-05-28T23:58:42.632Z,2.98
